Kirwin, Kansas
Current Conditions -  °F | °C
As of 7:53 PM on Tuesday 25 Nov 2014 (Local Time) from KHLC Reporting Station
Overcast Overcast  
Wind Chill: 43°   Ceiling: 9000
Heat Index: 43°   Visibility: 10mi
Dew Point: 13°   Wind: 3mph
Humidity: 30%   Direction: 280°W
Pressure: 29.89"   Gusts: NA
Location:  39.67°N, 99.12°W
Report Text: KHLC 260153Z AUTO 28003KT 10SM OVC090 06/M11 A2989 RMK AO2 SLP138 T00611106
Loading
Personal Weather Stations






























Interactive Weather Map New forecast layout! Learn more

10-Day Weather Forecast

Advertisements
Track Severe Weather on mobile